Time;durP1;ratioP1;P1;durP2;ratioP2;P2;SDS_P1;SDS_P2;PMS_P1;PMS_P2;Temp;Humidity;BMP_temperature;BMP_pressure;BME280_temperature;BME280_humidity;BME280_pressure;Samples;Min_cycle;Max_cycle;Signal;HPM_P1;HPM_P2
2021/03/30 00:01:17;;;;;;;38.77;17.67;;;10.30;99.90;;;;;;5055346;28;20631;-80
2021/03/30 00:03:44;;;;;;;34.43;17.10;;;10.20;99.90;;;;;;5068474;28;20286;-80
2021/03/30 00:06:12;;;;;;;35.10;17.13;;;10.10;99.90;;;;;;5034596;28;20295;-82
2021/03/30 00:08:38;;;;;;;34.93;17.23;;;10.10;99.90;;;;;;5054281;28;20576;-80
2021/03/30 00:11:06;;;;;;;36.07;16.90;;;10.10;99.90;;;;;;5053854;28;20300;-80
2021/03/30 00:13:32;;;;;;;36.60;17.40;;;10.00;99.90;;;;;;5052915;28;20271;-81
2021/03/30 00:15:59;;;;;;;33.07;16.30;;;10.00;99.90;;;;;;5054289;28;20684;-78
2021/03/30 00:18:25;;;;;;;38.20;18.37;;;10.00;99.90;;;;;;5054977;28;20238;-80
2021/03/30 00:20:51;;;;;;;38.70;17.53;;;10.00;99.90;;;;;;5069217;28;20343;-82
2021/03/30 00:23:19;;;;;;;35.27;17.93;;;10.00;99.90;;;;;;5064296;28;20301;-81
2021/03/30 00:25:45;;;;;;;38.23;18.93;;;10.00;99.90;;;;;;5055929;28;20234;-80
2021/03/30 00:28:12;;;;;;;42.17;18.70;;;10.00;99.90;;;;;;5065937;28;20213;-80
2021/03/30 00:30:38;;;;;;;36.63;18.30;;;10.10;99.90;;;;;;5064786;28;20717;-82
2021/03/30 00:33:05;;;;;;;41.40;17.53;;;10.10;99.90;;;;;;5065716;28;20360;-80
2021/03/30 00:35:32;;;;;;;39.07;17.73;;;10.00;99.90;;;;;;5076061;28;20194;-77
2021/03/30 00:37:58;;;;;;;38.60;17.77;;;10.00;99.90;;;;;;5078235;28;20215;-80
2021/03/30 00:40:25;;;;;;;41.10;19.20;;;9.90;99.90;;;;;;5073904;28;20211;-78
2021/03/30 00:42:53;;;;;;;34.93;17.60;;;9.90;99.90;;;;;;5082785;28;20207;-80
2021/03/30 00:45:20;;;;;;;35.77;18.23;;;9.80;99.90;;;;;;5078136;28;20188;-81
2021/03/30 00:47:48;;;;;;;37.30;16.97;;;9.80;99.90;;;;;;5078618;28;20187;-79
2021/03/30 00:50:18;;;;;;;39.47;18.53;;;9.90;99.90;;;;;;5090710;28;20194;-79
2021/03/30 00:52:44;;;;;;;35.03;17.40;;;9.90;99.90;;;;;;5084225;28;20220;-80
2021/03/30 00:55:12;;;;;;;46.90;17.73;;;10.00;99.90;;;;;;5071512;28;20201;-80
2021/03/30 00:57:40;;;;;;;42.27;18.20;;;10.00;99.90;;;;;;5055576;28;20616;-80
2021/03/30 01:00:08;;;;;;;36.47;17.13;;;10.00;99.90;;;;;;5064673;28;20284;-82
2021/03/30 01:02:35;;;;;;;40.73;17.60;;;9.90;99.90;;;;;;5053923;28;20265;-80
2021/03/30 01:05:02;;;;;;;40.33;18.30;;;9.80;99.90;;;;;;5053501;28;20284;-82
2021/03/30 01:07:28;;;;;;;38.87;17.00;;;9.70;99.90;;;;;;5052798;28;20238;-80
2021/03/30 01:10:08;;;;;;;39.70;17.50;;;9.60;99.90;;;;;;5053757;28;20212;-82
2021/03/30 01:12:46;;;;;;;37.73;17.60;;;9.40;99.90;;;;;;5052900;28;20233;-80
2021/03/30 01:15:32;;;;;;;36.23;17.77;;;9.40;99.90;;;;;;5049197;28;20290;-80
2021/03/30 01:18:08;;;;;;;33.57;17.10;;;9.50;99.90;;;;;;5053102;28;20215;-80
2021/03/30 01:21:05;;;;;;;36.13;17.47;;;9.50;99.90;;;;;;5051224;28;20198;-80
2021/03/30 01:23:50;;;;;;;37.57;18.03;;;9.50;99.90;;;;;;5053463;28;20216;-82
2021/03/30 01:26:23;;;;;;;35.53;16.73;;;9.40;99.90;;;;;;5037974;28;20256;-80
2021/03/30 01:29:11;;;;;;;36.93;17.20;;;9.40;99.90;;;;;;5048194;28;20338;-81
2021/03/30 01:31:40;;;;;;;41.40;18.93;;;9.50;99.90;;;;;;5050339;28;20207;-80
2021/03/30 01:34:10;;;;;;;36.90;18.33;;;9.60;99.90;;;;;;5052400;28;20332;-80
2021/03/30 01:36:39;;;;;;;37.90;18.20;;;9.70;99.90;;;;;;5053325;28;20297;-80
2021/03/30 01:39:08;;;;;;;40.33;18.30;;;9.60;99.90;;;;;;5052272;28;20713;-82
2021/03/30 01:41:38;;;;;;;39.43;18.53;;;9.60;99.90;;;;;;5040576;28;20235;-79
2021/03/30 01:44:07;;;;;;;38.67;18.80;;;9.60;99.90;;;;;;5052984;28;20303;-80
2021/03/30 01:46:35;;;;;;;40.77;18.40;;;9.50;99.90;;;;;;5052298;28;20289;-80
2021/03/30 01:49:02;;;;;;;36.50;18.10;;;9.50;99.90;;;;;;5053137;28;20214;-81
2021/03/30 01:51:29;;;;;;;37.83;18.97;;;9.50;99.90;;;;;;5052456;28;20292;-79
2021/03/30 01:53:57;;;;;;;41.23;19.70;;;9.50;99.90;;;;;;5042807;28;20708;-80
2021/03/30 01:56:24;;;;;;;43.77;19.33;;;9.50;99.90;;;;;;5052941;28;20296;-80
2021/03/30 01:58:52;;;;;;;36.07;18.43;;;9.50;99.90;;;;;;5047519;28;20206;-80
2021/03/30 02:01:21;;;;;;;41.97;18.53;;;9.50;99.90;;;;;;5052896;28;20297;-81
2021/03/30 02:03:50;;;;;;;33.87;17.43;;;9.40;99.90;;;;;;5053145;28;20722;-80
2021/03/30 02:06:16;;;;;;;37.33;18.23;;;9.10;99.90;;;;;;5053291;28;20204;-82
2021/03/30 02:08:44;;;;;;;37.40;18.00;;;9.10;99.90;;;;;;5068431;28;20211;-83
2021/03/30 02:11:19;;;;;;;38.73;18.90;;;9.10;99.90;;;;;;5032369;28;20195;-79
2021/03/30 02:13:53;;;;;;;44.33;18.43;;;9.10;99.90;;;;;;5058048;28;20224;-80
2021/03/30 02:16:22;;;;;;;35.87;17.73;;;9.20;99.90;;;;;;5070058;28;20683;-83
2021/03/30 02:18:57;;;;;;;41.03;18.83;;;9.10;99.90;;;;;;5057643;28;20636;-81
2021/03/30 02:21:34;;;;;;;41.57;18.23;;;9.10;99.90;;;;;;5056470;28;20204;-81
2021/03/30 02:24:06;;;;;;;34.87;17.67;;;9.20;99.90;;;;;;5059908;28;20236;-80
2021/03/30 02:26:34;;;;;;;36.80;18.33;;;9.30;99.90;;;;;;5057944;28;20201;-80
2021/03/30 02:29:04;;;;;;;36.20;17.97;;;9.40;99.90;;;;;;5064476;28;20602;-81
2021/03/30 02:31:33;;;;;;;36.47;18.60;;;9.40;99.90;;;;;;5037500;28;20222;-82
2021/03/30 02:34:04;;;;;;;42.80;19.23;;;9.30;99.90;;;;;;5051299;28;20305;-79
2021/03/30 02:36:31;;;;;;;41.70;18.63;;;9.20;99.90;;;;;;5069803;28;20292;-80
2021/03/30 02:39:05;;;;;;;42.40;19.57;;;9.20;99.90;;;;;;5061414;28;20281;-82
2021/03/30 02:41:31;;;;;;;38.50;18.93;;;9.10;99.90;;;;;;5060264;28;20248;-81
2021/03/30 02:44:00;;;;;;;39.90;18.70;;;9.10;99.90;;;;;;5054787;28;20206;-82
2021/03/30 02:46:27;;;;;;;37.07;19.53;;;9.00;99.90;;;;;;5060861;28;20206;-82
2021/03/30 02:48:55;;;;;;;41.07;19.00;;;9.00;99.90;;;;;;5055950;28;20205;-81
2021/03/30 02:51:25;;;;;;;41.30;19.33;;;9.00;99.90;;;;;;5067206;28;20831;-85
2021/03/30 02:53:53;;;;;;;43.10;18.67;;;8.90;99.90;;;;;;5046448;28;20744;-81
2021/03/30 02:56:21;;;;;;;40.13;18.67;;;8.80;99.90;;;;;;5047459;28;20198;-82
2021/03/30 02:58:47;;;;;;;37.37;18.20;;;8.80;99.90;;;;;;5070631;28;20247;-81
2021/03/30 03:01:15;;;;;;;41.93;19.03;;;8.80;99.90;;;;;;5063823;28;20538;-82
2021/03/30 03:03:43;;;;;;;40.83;19.37;;;8.90;99.90;;;;;;5054390;28;20554;-82
2021/03/30 03:06:11;;;;;;;42.10;18.07;;;8.90;99.90;;;;;;5052519;28;20250;-83
2021/03/30 03:08:39;;;;;;;45.00;20.07;;;8.90;99.90;;;;;;5054169;28;20217;-82
2021/03/30 03:11:07;;;;;;;41.87;18.77;;;8.80;99.90;;;;;;5044864;28;20302;-81
2021/03/30 03:13:35;;;;;;;45.33;19.53;;;8.70;99.90;;;;;;5061456;28;20331;-83
2021/03/30 03:16:02;;;;;;;45.13;19.23;;;8.70;99.90;;;;;;5043288;28;20221;-81
2021/03/30 03:18:29;;;;;;;40.00;19.83;;;8.70;99.90;;;;;;5074025;28;20339;-81
2021/03/30 03:20:55;;;;;;;42.77;19.23;;;8.60;99.90;;;;;;5060718;28;20230;-81
2021/03/30 03:23:23;;;;;;;41.90;19.57;;;8.60;99.90;;;;;;5059819;28;20296;-81
2021/03/30 03:25:50;;;;;;;39.20;18.53;;;8.70;99.90;;;;;;5056698;28;20301;-81
2021/03/30 03:28:16;;;;;;;45.83;19.67;;;8.70;99.90;;;;;;5044240;28;619148;-81
2021/03/30 03:30:43;;;;;;;40.37;17.67;;;8.70;99.90;;;;;;5056884;28;20289;-81
2021/03/30 03:33:12;;;;;;;46.97;18.53;;;8.60;99.90;;;;;;5050531;28;20225;-81
2021/03/30 03:35:39;;;;;;;41.60;19.20;;;8.60;99.90;;;;;;5073230;28;20275;-80
2021/03/30 03:38:06;;;;;;;43.73;18.70;;;8.60;99.90;;;;;;5075050;28;20241;-81
2021/03/30 03:40:33;;;;;;;37.30;17.43;;;8.60;99.90;;;;;;5072137;28;20214;-81
2021/03/30 03:43:01;;;;;;;39.40;18.40;;;8.60;99.90;;;;;;5051613;28;20324;-79
2021/03/30 03:45:28;;;;;;;41.60;17.93;;;8.70;99.90;;;;;;5037635;28;20329;-80
2021/03/30 03:47:54;;;;;;;42.03;19.13;;;8.60;99.90;;;;;;5045928;28;20238;-82
2021/03/30 03:50:21;;;;;;;46.57;18.23;;;8.60;99.90;;;;;;5074364;28;20198;-80
2021/03/30 03:52:52;;;;;;;38.13;17.53;;;8.60;99.90;;;;;;5060517;28;20278;-81
2021/03/30 03:55:21;;;;;;;41.07;18.60;;;8.60;99.90;;;;;;5067326;28;20305;-80
2021/03/30 03:57:51;;;;;;;49.73;19.17;;;8.50;99.90;;;;;;5061753;28;20217;-83
2021/03/30 04:00:20;;;;;;;44.20;19.40;;;8.60;99.90;;;;;;5041101;28;20208;-80
2021/03/30 04:02:51;;;;;;;43.17;18.77;;;8.60;99.90;;;;;;5062466;28;20996;-80
2021/03/30 04:05:22;;;;;;;42.33;19.00;;;8.60;99.90;;;;;;5059165;28;20198;-82
2021/03/30 04:07:52;;;;;;;41.33;18.53;;;8.50;99.90;;;;;;5071019;28;20715;-80
2021/03/30 04:10:20;;;;;;;38.90;18.93;;;8.50;99.90;;;;;;5073829;28;20281;-81
2021/03/30 04:12:48;;;;;;;42.93;19.37;;;8.50;99.90;;;;;;5055251;28;20300;-80
2021/03/30 04:15:16;;;;;;;43.87;17.83;;;8.60;99.90;;;;;;5073534;28;20269;-80
2021/03/30 04:17:43;;;;;;;36.67;17.60;;;8.50;99.90;;;;;;5055538;28;20196;-79
2021/03/30 04:20:12;;;;;;;41.07;17.80;;;8.40;99.90;;;;;;5062964;28;20297;-81
2021/03/30 04:22:38;;;;;;;45.77;19.17;;;8.40;99.90;;;;;;5056563;28;20560;-82
2021/03/30 04:25:07;;;;;;;43.40;19.17;;;8.50;99.90;;;;;;5063575;28;20296;-81
2021/03/30 04:27:34;;;;;;;41.57;18.47;;;8.50;99.90;;;;;;5068820;28;20200;-80
2021/03/30 04:30:00;;;;;;;38.97;17.73;;;8.50;99.90;;;;;;5066676;28;20272;-80
2021/03/30 04:32:27;;;;;;;39.93;18.33;;;8.50;99.90;;;;;;5058940;28;20222;-79
2021/03/30 04:34:54;;;;;;;43.67;18.53;;;8.50;99.90;;;;;;5071603;28;20662;-81
2021/03/30 04:37:20;;;;;;;47.63;19.50;;;8.60;99.90;;;;;;5065349;28;20296;-79
2021/03/30 04:39:47;;;;;;;40.53;18.30;;;8.50;99.90;;;;;;5054626;28;20664;-80
2021/03/30 04:42:13;;;;;;;38.20;16.50;;;8.60;99.90;;;;;;5065567;28;20204;-79
2021/03/30 04:44:39;;;;;;;39.33;17.00;;;8.60;99.90;;;;;;5069272;28;20687;-80
2021/03/30 04:47:06;;;;;;;35.80;16.53;;;8.60;99.90;;;;;;5072663;28;20292;-80
2021/03/30 04:49:33;;;;;;;36.53;17.07;;;8.60;99.90;;;;;;5069756;28;20573;-82
2021/03/30 04:52:00;;;;;;;42.37;17.60;;;8.80;99.90;;;;;;5048960;28;20242;-81
2021/03/30 04:54:26;;;;;;;36.23;16.70;;;8.80;99.90;;;;;;5059563;28;20706;-78
2021/03/30 04:56:53;;;;;;;36.60;17.70;;;8.90;99.90;;;;;;5056876;28;20286;-80
2021/03/30 04:59:19;;;;;;;38.53;17.33;;;8.80;99.90;;;;;;5063365;28;20640;-80
2021/03/30 05:01:46;;;;;;;38.77;17.47;;;8.80;99.90;;;;;;5068259;28;20217;-81
2021/03/30 05:04:12;;;;;;;40.80;17.67;;;8.90;99.90;;;;;;5054752;28;20293;-82
2021/03/30 05:06:39;;;;;;;38.97;17.30;;;8.80;99.90;;;;;;5067096;28;20201;-82
2021/03/30 05:09:06;;;;;;;41.97;18.53;;;8.80;99.90;;;;;;5064328;28;20225;-79
2021/03/30 05:11:33;;;;;;;35.17;16.57;;;8.70;99.90;;;;;;5063861;28;20203;-80
2021/03/30 05:14:00;;;;;;;37.43;17.43;;;8.70;99.90;;;;;;5055868;28;20218;-83
2021/03/30 05:16:26;;;;;;;37.63;16.93;;;8.60;99.90;;;;;;5051480;28;20202;-80
2021/03/30 05:18:53;;;;;;;33.03;16.30;;;8.60;99.90;;;;;;5051969;28;20208;-80
2021/03/30 05:21:19;;;;;;;41.72;17.85;;;8.60;99.90;;;;;;5053181;28;20559;-80
2021/03/30 05:23:46;;;;;;;33.13;16.37;;;8.60;99.90;;;;;;5059691;28;20217;-80
2021/03/30 05:26:13;;;;;;;36.10;16.13;;;8.60;99.90;;;;;;5069938;28;20639;-80
2021/03/30 05:28:39;;;;;;;35.90;16.13;;;8.70;99.90;;;;;;5052858;28;20235;-80
2021/03/30 05:31:06;;;;;;;35.03;14.83;;;8.70;99.90;;;;;;5054393;28;20200;-83
2021/03/30 05:33:32;;;;;;;32.73;14.80;;;8.70;99.90;;;;;;5072728;28;20676;-81
2021/03/30 05:35:59;;;;;;;35.50;14.83;;;8.70;99.90;;;;;;5072110;28;20225;-80
2021/03/30 05:38:25;;;;;;;39.47;16.43;;;8.80;99.90;;;;;;5043021;28;20287;-82
2021/03/30 05:40:53;;;;;;;35.60;15.57;;;8.80;99.90;;;;;;5059273;28;20236;-79
2021/03/30 05:43:21;;;;;;;30.97;15.43;;;8.90;99.90;;;;;;5050779;28;20301;-83
2021/03/30 05:45:48;;;;;;;33.90;14.67;;;9.10;99.90;;;;;;5057268;28;20241;-80
2021/03/30 05:48:16;;;;;;;36.40;15.53;;;9.20;99.90;;;;;;5052690;28;20201;-80
2021/03/30 05:50:43;;;;;;;34.67;15.20;;;9.30;99.90;;;;;;5054093;28;20207;-81
2021/03/30 05:53:11;;;;;;;41.27;16.47;;;9.30;99.90;;;;;;5060626;28;20195;-79
2021/03/30 05:55:39;;;;;;;36.33;15.37;;;9.40;99.90;;;;;;5072094;28;20205;-79
2021/03/30 05:58:07;;;;;;;34.37;15.00;;;9.50;99.90;;;;;;5064826;28;20425;-79
2021/03/30 06:00:37;;;;;;;33.67;14.50;;;9.60;99.90;;;;;;5051462;28;20289;-78
2021/03/30 06:03:06;;;;;;;32.53;14.33;;;9.80;99.90;;;;;;5056356;28;20251;-79
2021/03/30 06:05:33;;;;;;;32.40;13.87;;;10.00;99.90;;;;;;5070439;28;20662;-79
2021/03/30 06:08:02;;;;;;;34.07;14.63;;;10.10;99.90;;;;;;5052661;28;20200;-80
2021/03/30 06:10:31;;;;;;;32.70;14.03;;;10.20;99.90;;;;;;5052201;28;20297;-78
2021/03/30 06:12:58;;;;;;;38.70;16.75;;;10.20;99.90;;;;;;5051846;28;20964;-79
2021/03/30 06:15:29;;;;;;;31.57;14.50;;;10.10;99.90;;;;;;5056633;28;20248;-80
2021/03/30 06:17:57;;;;;;;29.83;14.27;;;10.30;99.90;;;;;;5049445;28;20197;-79
2021/03/30 06:20:29;;;;;;;33.70;13.10;;;10.40;99.90;;;;;;5034922;28;20291;-79
2021/03/30 06:22:57;;;;;;;35.83;14.17;;;10.50;99.90;;;;;;5041180;28;20732;-80
2021/03/30 06:25:52;;;;;;;34.13;14.17;;;10.70;99.90;;;;;;5065184;28;20666;-78
2021/03/30 06:28:21;;;;;;;36.57;14.27;;;10.70;99.90;;;;;;5034745;28;20267;-81
2021/03/30 06:30:57;;;;;;;36.17;15.43;;;10.60;99.90;;;;;;5053668;28;20242;-80
2021/03/30 06:33:25;;;;;;;33.57;15.27;;;10.60;99.90;;;;;;5048103;28;20253;-79
2021/03/30 06:35:52;;;;;;;35.67;15.13;;;10.50;99.90;;;;;;5061082;28;20601;-80
2021/03/30 06:38:19;;;;;;;33.60;15.30;;;10.70;99.90;;;;;;5061389;28;20204;-78
2021/03/30 06:40:47;;;;;;;32.80;15.50;;;10.90;99.90;;;;;;5066784;28;20197;-79
2021/03/30 06:46:07;;;;;;;30.17;15.07;;;10.90;99.90;;;;;;5070392;28;20588;-78
2021/03/30 06:48:35;;;;;;;39.73;16.50;;;11.00;99.90;;;;;;5068031;28;20202;-79
2021/03/30 06:51:17;;;;;;;37.87;16.70;;;11.20;99.90;;;;;;5067417;28;20183;-79
2021/03/30 06:53:43;;;;;;;39.13;16.73;;;11.30;99.90;;;;;;5073120;28;20218;-79
2021/03/30 06:56:10;;;;;;;37.13;16.13;;;11.30;99.90;;;;;;5077358;28;20183;-78
2021/03/30 06:58:57;;;;;;;37.97;17.03;;;11.50;99.90;;;;;;5067580;28;20214;-77
2021/03/30 07:01:25;;;;;;;42.07;17.53;;;11.40;99.90;;;;;;5069666;28;20200;-79
2021/03/30 07:03:54;;;;;;;46.73;17.13;;;11.30;99.90;;;;;;5070292;28;20283;-79
2021/03/30 07:06:21;;;;;;;51.70;17.67;;;11.40;99.90;;;;;;5058148;28;20674;-80
2021/03/30 07:08:48;;;;;;;42.33;16.67;;;11.50;99.90;;;;;;5049913;28;20279;-79
2021/03/30 07:11:16;;;;;;;53.87;18.83;;;11.60;99.90;;;;;;5058084;28;20292;-78
2021/03/30 07:13:43;;;;;;;41.47;17.53;;;11.90;99.90;;;;;;5054202;28;20239;-79
2021/03/30 07:16:14;;;;;;;46.17;17.90;;;12.20;99.90;;;;;;5054932;28;20245;-79
2021/03/30 07:18:44;;;;;;;41.53;17.30;;;12.40;99.90;;;;;;5056460;28;20287;-79
2021/03/30 07:21:15;;;;;;;37.50;16.10;;;12.50;99.90;;;;;;5063322;28;20343;-78
2021/03/30 07:23:46;;;;;;;46.17;17.57;;;12.70;99.90;;;;;;5054876;28;20733;-79
2021/03/30 07:26:15;;;;;;;43.13;16.93;;;12.80;99.90;;;;;;5055409;28;20278;-79
2021/03/30 07:28:45;;;;;;;51.57;17.73;;;13.00;99.90;;;;;;5054102;28;20204;-80
2021/03/30 07:31:15;;;;;;;36.10;16.53;;;13.10;99.90;;;;;;5053759;28;20294;-80
2021/03/30 07:33:47;;;;;;;42.97;16.80;;;13.20;99.90;;;;;;5054774;28;20753;-80
2021/03/30 07:36:17;;;;;;;57.50;18.30;;;13.30;99.90;;;;;;5054402;28;20200;-78
2021/03/30 07:38:46;;;;;;;40.07;17.53;;;13.50;99.90;;;;;;5055243;28;20228;-78
2021/03/30 07:41:17;;;;;;;41.53;18.63;;;13.60;99.90;;;;;;5054376;28;20294;-77
2021/03/30 07:43:45;;;;;;;39.80;17.53;;;13.70;99.90;;;;;;5054909;28;20287;-80
2021/03/30 07:46:11;;;;;;;40.73;17.03;;;13.90;99.90;;;;;;5054625;28;20284;-81
2021/03/30 07:48:39;;;;;;;48.73;18.63;;;14.00;99.90;;;;;;5054202;28;20295;-77
2021/03/30 07:51:08;;;;;;;43.17;17.07;;;14.10;99.90;;;;;;5054910;28;20643;-77
2021/03/30 07:53:47;;;;;;;50.23;16.93;;;14.30;99.90;;;;;;5054956;28;20235;-77
2021/03/30 07:56:53;;;;;;;44.17;16.60;;;14.60;99.90;;;;;;5052131;28;20202;-77
2021/03/30 07:59:42;;;;;;;48.67;17.13;;;14.70;99.90;;;;;;5050275;28;20629;-80
2021/03/30 08:02:12;;;;;;;63.90;19.27;;;15.00;99.90;;;;;;5049241;28;20215;-80
2021/03/30 08:04:38;;;;;;;48.57;16.30;;;15.20;99.90;;;;;;5053371;28;20214;-78
2021/03/30 08:07:05;;;;;;;47.53;16.73;;;15.20;99.90;;;;;;5054043;28;20657;-77
2021/03/30 08:09:32;;;;;;;53.20;17.23;;;15.30;99.90;;;;;;5054249;28;20209;-78
2021/03/30 08:11:59;;;;;;;60.10;16.83;;;15.50;99.90;;;;;;5053331;28;20196;-80
2021/03/30 08:14:40;;;;;;;54.30;16.47;;;15.60;99.90;;;;;;5057163;28;20220;-78
2021/03/30 08:17:19;;;;;;;49.93;15.77;;;15.80;99.90;;;;;;5060299;28;20286;-79
2021/03/30 08:20:15;;;;;;;40.43;15.47;;;15.90;99.90;;;;;;5056353;28;20291;-77
2021/03/30 08:23:03;;;;;;;39.63;14.13;;;16.00;99.90;;;;;;5056049;28;20268;-78
2021/03/30 08:25:38;;;;;;;34.27;13.13;;;16.30;99.90;;;;;;5061378;28;20204;-78
2021/03/30 08:28:05;;;;;;;44.00;13.97;;;16.50;99.90;;;;;;5053816;28;20196;-78
2021/03/30 08:30:54;;;;;;;35.07;12.57;;;16.50;99.90;;;;;;5062118;28;20284;-78
2021/03/30 08:33:24;;;;;;;36.30;12.20;;;16.60;99.90;;;;;;5053428;28;20228;-80
2021/03/30 08:35:50;;;;;;;32.40;12.07;;;16.70;99.90;;;;;;5054124;28;20253;-78
2021/03/30 08:38:42;;;;;;;34.50;11.83;;;16.80;99.90;;;;;;5053524;28;20294;-79
2021/03/30 08:41:09;;;;;;;26.73;11.00;;;16.80;99.90;;;;;;5045078;28;20200;-79
2021/03/30 08:43:36;;;;;;;34.27;12.10;;;16.90;99.90;;;;;;5052349;28;20192;-78
2021/03/30 08:46:06;;;;;;;42.57;12.47;;;17.00;99.90;;;;;;5053346;28;20283;-79
2021/03/30 08:48:40;;;;;;;37.50;11.70;;;17.10;99.90;;;;;;5053999;28;20300;-81
2021/03/30 08:51:08;;;;;;;30.83;11.70;;;17.10;99.90;;;;;;5053084;28;20766;-80
2021/03/30 08:53:36;;;;;;;32.77;11.90;;;17.20;99.90;;;;;;5052894;28;20204;-80
2021/03/30 08:56:09;;;;;;;35.03;11.10;;;17.30;99.90;;;;;;5053399;28;20782;-81
2021/03/30 08:58:43;;;;;;;24.97;10.43;;;17.40;99.90;;;;;;5053564;28;20204;-78
2021/03/30 09:01:11;;;;;;;29.23;10.70;;;17.50;99.90;;;;;;5050665;28;20573;-80
2021/03/30 09:03:38;;;;;;;22.57;10.40;;;17.60;99.90;;;;;;5056621;28;20205;-79
2021/03/30 09:06:05;;;;;;;20.57;9.50;;;17.70;99.90;;;;;;5047981;28;20242;-80
2021/03/30 09:08:36;;;;;;;23.10;9.73;;;17.90;99.90;;;;;;5045419;28;20195;-77
2021/03/30 09:11:19;;;;;;;20.67;9.27;;;18.00;99.90;;;;;;5031558;28;20204;-77
2021/03/30 09:14:04;;;;;;;26.17;9.70;;;18.20;99.90;;;;;;5034808;28;20358;-80
2021/03/30 09:16:32;;;;;;;23.63;9.90;;;18.30;99.90;;;;;;5044028;28;20290;-80
2021/03/30 09:19:22;;;;;;;19.47;8.90;;;18.50;99.90;;;;;;5053863;28;20224;-80
2021/03/30 09:21:53;;;;;;;24.43;9.40;;;18.70;99.90;;;;;;5044277;28;20644;-81
2021/03/30 09:24:37;;;;;;;18.70;9.90;;;19.20;99.90;;;;;;5046389;28;20196;-78
2021/03/30 09:27:05;;;;;;;21.60;8.87;;;20.00;99.90;;;;;;5047910;28;20625;-80
2021/03/30 09:29:35;;;;;;;22.53;9.47;;;20.90;99.90;;;;;;5045506;28;20257;-78
2021/03/30 09:32:04;;;;;;;28.37;9.80;;;21.60;99.90;;;;;;5058125;28;20278;-78
2021/03/30 09:34:30;;;;;;;19.87;9.23;;;22.40;99.90;;;;;;5058523;28;20312;-78
2021/03/30 09:36:59;;;;;;;25.10;8.83;;;22.90;99.90;;;;;;5054306;28;20675;-79
2021/03/30 09:39:27;;;;;;;23.70;9.32;;;23.30;99.90;;;;;;5045646;28;20284;-78
2021/03/30 09:41:54;;;;;;;19.92;9.48;;;24.10;99.90;;;;;;5049718;28;20653;-77
2021/03/30 09:44:22;;;;;;;17.55;9.07;;;24.70;99.90;;;;;;5059346;28;20206;-78
2021/03/30 09:46:52;;;;;;;16.70;8.70;;;25.20;99.90;;;;;;5058582;28;20298;-77
2021/03/30 09:49:21;;;;;;;17.58;9.98;;;25.80;98.70;;;;;;5051645;28;20216;-79
2021/03/30 09:51:48;;;;;;;16.17;9.77;;;25.50;98.60;;;;;;5051418;28;20287;-80
2021/03/30 09:54:24;;;;;;;18.50;10.77;;;25.40;97.90;;;;;;5051461;28;20298;-78
2021/03/30 09:56:57;;;;;;;19.98;10.52;;;25.50;97.20;;;;;;5054776;28;20203;-78
2021/03/30 09:59:23;;;;;;;19.00;11.07;;;25.70;97.20;;;;;;5046722;28;20714;-78
2021/03/30 10:01:51;;;;;;;19.38;10.95;;;25.70;97.20;;;;;;5037553;28;20679;-78
2021/03/30 10:04:18;;;;;;;23.27;11.82;;;26.20;96.60;;;;;;5049454;28;20329;-79
2021/03/30 10:06:44;;;;;;;15.48;10.50;;;26.40;96.70;;;;;;5057299;28;20196;-78
2021/03/30 10:09:11;;;;;;;18.83;10.05;;;25.80;95.10;;;;;;5057945;28;20306;-77
2021/03/30 10:11:37;;;;;;;17.77;9.82;;;25.40;95.10;;;;;;5059756;28;20203;-78
2021/03/30 10:14:26;;;;;;;16.50;9.48;;;24.70;94.90;;;;;;5060410;28;20228;-78
2021/03/30 10:16:58;;;;;;;15.13;8.48;;;24.70;95.90;;;;;;5070006;28;20192;-78
2021/03/30 10:19:25;;;;;;;13.43;7.63;;;24.30;95.10;;;;;;5052580;28;20703;-78
2021/03/30 10:21:54;;;;;;;16.50;8.63;;;24.60;95.20;;;;;;5050406;28;20670;-78
2021/03/30 10:24:21;;;;;;;15.45;9.02;;;24.30;94.10;;;;;;5043607;28;20710;-77
2021/03/30 10:27:09;;;;;;;16.77;8.63;;;24.30;95.70;;;;;;5035717;28;20197;-77
2021/03/30 10:29:39;;;;;;;14.80;8.40;;;24.60;95.70;;;;;;5048416;28;20219;-79
2021/03/30 10:32:12;;;;;;;14.15;8.07;;;24.60;95.60;;;;;;5067801;28;20638;-78
2021/03/30 10:34:39;;;;;;;18.50;9.10;;;24.60;95.30;;;;;;5068750;28;20686;-78
2021/03/30 10:37:07;;;;;;;15.73;8.55;;;24.90;96.00;;;;;;5059461;28;20202;-78
2021/03/30 10:39:36;;;;;;;16.55;8.95;;;25.10;95.80;;;;;;5048085;28;20618;-77
2021/03/30 10:42:06;;;;;;;17.77;9.05;;;25.40;95.50;;;;;;5043607;28;20204;-78
2021/03/30 10:44:38;;;;;;;20.08;9.27;;;25.70;95.70;;;;;;5051361;28;20196;-79
2021/03/30 10:47:17;;;;;;;18.05;9.48;;;26.00;95.40;;;;;;5053274;28;20665;-78
2021/03/30 10:49:45;;;;;;;18.25;8.40;;;25.70;95.30;;;;;;5047753;28;20278;-78
2021/03/30 10:52:16;;;;;;;15.82;8.38;;;25.80;95.50;;;;;;5049449;28;20192;-78
2021/03/30 10:54:43;;;;;;;16.23;8.45;;;25.60;95.00;;;;;;5048306;28;20325;-79
2021/03/30 10:57:13;;;;;;;12.57;7.72;;;25.80;94.50;;;;;;5056249;28;20200;-79
2021/03/30 10:59:42;;;;;;;12.38;7.85;;;25.70;94.00;;;;;;5052505;28;20199;-78
2021/03/30 11:02:09;;;;;;;15.85;8.65;;;25.70;95.00;;;;;;5046006;28;20546;-78
2021/03/30 11:04:38;;;;;;;17.88;9.18;;;26.00;95.30;;;;;;5035289;28;20203;-79
2021/03/30 11:07:05;;;;;;;20.77;9.68;;;25.90;95.30;;;;;;5045071;28;20303;-79
2021/03/30 11:09:32;;;;;;;21.48;9.93;;;26.30;94.60;;;;;;5050780;28;20570;-78
2021/03/30 11:11:58;;;;;;;13.95;8.15;;;26.50;94.70;;;;;;5052907;28;20195;-78
2021/03/30 11:14:25;;;;;;;18.92;9.27;;;26.30;94.10;;;;;;5046015;28;20239;-78
2021/03/30 11:16:52;;;;;;;15.55;8.38;;;26.10;94.30;;;;;;5045580;28;20231;-78
2021/03/30 11:19:18;;;;;;;16.70;7.97;;;26.40;94.30;;;;;;5048615;28;20290;-79
2021/03/30 11:21:46;;;;;;;15.27;8.38;;;26.80;93.00;;;;;;5047097;28;20201;-77
2021/03/30 11:24:18;;;;;;;14.00;7.90;;;26.80;93.00;;;;;;5050196;28;20568;-77
2021/03/30 11:26:47;;;;;;;14.98;8.02;;;26.70;93.30;;;;;;5042230;28;20199;-77
2021/03/30 11:29:19;;;;;;;13.90;7.68;;;26.70;92.80;;;;;;5040116;28;20215;-77
2021/03/30 11:32:11;;;;;;;12.05;7.75;;;26.30;93.60;;;;;;5055898;28;20199;-76
2021/03/30 11:34:41;;;;;;;19.27;7.60;;;26.40;93.50;;;;;;5052363;28;20223;-78
2021/03/30 11:37:33;;;;;;;14.32;7.68;;;26.10;93.50;;;;;;5053977;28;20272;-78
2021/03/30 11:40:00;;;;;;;17.20;8.10;;;26.30;92.90;;;;;;5052231;28;20204;-79
2021/03/30 11:42:27;;;;;;;16.60;8.88;;;26.60;93.50;;;;;;5051992;28;20196;-78
2021/03/30 11:44:53;;;;;;;12.18;7.50;;;26.50;93.10;;;;;;5053953;28;20204;-79
2021/03/30 11:47:20;;;;;;;12.88;7.63;;;26.30;92.30;;;;;;5051420;28;20627;-76
2021/03/30 11:49:47;;;;;;;17.00;6.93;;;26.20;92.60;;;;;;5058179;28;20211;-77
2021/03/30 11:52:14;;;;;;;16.13;7.57;;;26.30;93.80;;;;;;5055145;28;20685;-77
2021/03/30 11:54:41;;;;;;;12.55;7.60;;;26.70;92.60;;;;;;5047946;28;20773;-77
2021/03/30 11:57:08;;;;;;;14.18;8.00;;;26.90;92.70;;;;;;5054688;28;20204;-78
2021/03/30 11:59:35;;;;;;;12.35;6.78;;;27.20;91.60;;;;;;5058301;28;20250;-76
2021/03/30 12:02:01;;;;;;;10.75;7.43;;;27.30;91.60;;;;;;5058675;28;20204;-77
2021/03/30 12:04:28;;;;;;;12.13;6.72;;;26.80;91.80;;;;;;5053517;28;20298;-77
2021/03/30 12:06:54;;;;;;;13.80;7.20;;;26.20;92.40;;;;;;5061510;28;20196;-77
2021/03/30 12:09:21;;;;;;;13.23;6.60;;;26.30;92.20;;;;;;5055588;28;20254;-79
2021/03/30 12:11:48;;;;;;;20.08;6.65;;;26.50;91.70;;;;;;5053642;28;20196;-78
2021/03/30 12:14:15;;;;;;;9.90;6.28;;;26.60;91.60;;;;;;5054854;28;20220;-78
2021/03/30 12:16:43;;;;;;;9.68;5.78;;;26.50;91.80;;;;;;5058119;28;20259;-77
2021/03/30 12:19:09;;;;;;;10.40;5.90;;;26.30;91.50;;;;;;5054864;28;20207;-77
2021/03/30 12:21:36;;;;;;;11.55;5.85;;;26.10;91.50;;;;;;5042655;28;20235;-76
2021/03/30 12:24:03;;;;;;;11.13;6.07;;;25.80;91.80;;;;;;5056603;28;20200;-76
2021/03/30 12:26:30;;;;;;;7.82;5.32;;;25.80;91.90;;;;;;5048414;28;20289;-76
2021/03/30 12:28:58;;;;;;;12.82;6.07;;;25.70;91.80;;;;;;5053038;28;20222;-76
2021/03/30 12:31:24;;;;;;;8.70;5.32;;;25.60;91.50;;;;;;5045399;28;20204;-76
2021/03/30 12:33:51;;;;;;;10.55;5.20;;;25.60;92.30;;;;;;5050344;28;20630;-76
2021/03/30 12:36:17;;;;;;;6.28;4.85;;;25.80;91.30;;;;;;5051050;28;20673;-77
2021/03/30 12:38:44;;;;;;;9.35;5.28;;;26.00;91.30;;;;;;5042718;28;20238;-75
2021/03/30 12:41:10;;;;;;;14.77;4.80;;;26.20;91.20;;;;;;5052718;28;20231;-75
2021/03/30 12:43:39;;;;;;;8.63;4.82;;;26.30;91.60;;;;;;5048864;28;20793;-76
2021/03/30 12:46:05;;;;;;;9.60;5.40;;;25.90;91.10;;;;;;5037394;28;20207;-75
2021/03/30 12:48:31;;;;;;;9.07;5.13;;;25.90;91.70;;;;;;5051757;28;20582;-76